49.8°F
Current conditions from King Hill
Updated every 5 minutes
 
  Monday April 21, 2014

Station Historical Data
Daily Summary for February 11, 2012 Units:  Both    English   Metric
« Previous Day
Next Day »
Daily Weekly Monthly Yearly Custom
  High: Low: Average:
Temperature: 29.8 °F /  -1.2 °C 3.5 °F /  -15.8 °C 14.3 °F /  -9.8 °C
Dew Point: 23.3 °F /  -4.8 °C -1.8 °F /  -18.8 °C 7.8 °F /  -13.4 °C
Humidity: 86% 63% 75%
Wind Speed: 6.0mph /  9.7km/h - 1.9mph /  3.1km/h
Wind Gust: 10.0mph /  16.1km/h - -
Wind- - SW
Pressure: 29.85 in /  1010.7 hPa 29.77 in /  1008 hPa -
Precipitation: 0.00 in /  0 mm    
Historical Graphs
 
 
Tabular Data for February 11, 2012
Time Temperature Dew Point Pressure Wind Wind Speed Wind Gust Humidity Daily Rainfall
00:04 28.9 °F /  -1.7 °C 17.9 °F /  -7.8 °C 29.84in /  1010.4hPa Calm   1.0mph /  1.6km/h 63% 0.00in /  0mm
00:09 28.9 °F /  -1.7 °C 17.9 °F /  -7.8 °C 29.84in /  1010.4hPa Calm   1.0mph /  1.6km/h 63% 0.00in /  0mm
00:14 28.8 °F /  -1.8 °C 17.8 °F /  -7.9 °C 29.84in /  1010.4hPa Calm   1.0mph /  1.6km/h 63% 0.00in /  0mm
00:19 28.8 °F /  -1.8 °C 17.8 °F /  -7.9 °C 29.84in /  1010.4hPa Calm   1.0mph /  1.6km/h 63% 0.00in /  0mm
00:24 28.9 °F /  -1.7 °C 17.9 °F /  -7.8 °C 29.84in /  1010.4hPa Calm   2.0mph /  3.2km/h 63% 0.00in /  0mm
00:29 29.0 °F /  -1.7 °C 18.0 °F /  -7.8 °C 29.84in /  1010.4hPa Calm   2.0mph /  3.2km/h 63% 0.00in /  0mm
00:34 29.1 °F /  -1.6 °C 18.4 °F /  -7.6 °C 29.84in /  1010.4hPa Calm   2.0mph /  3.2km/h 64% 0.00in /  0mm
00:39 29.0 °F /  -1.7 °C 18.0 °F /  -7.8 °C 29.83in /  1010hPa Calm   2.0mph /  3.2km/h 63% 0.00in /  0mm
00:44 29.0 °F /  -1.7 °C 18.3 °F /  -7.6 °C 29.84in /  1010.4hPa Calm   2.0mph /  3.2km/h 64% 0.00in /  0mm
00:49 29.0 °F /  -1.7 °C 18.3 °F /  -7.6 °C 29.84in /  1010.4hPa Calm   3.0mph /  4.8km/h 64% 0.00in /  0mm
00:54 29.4 °F /  -1.4 °C 18.4 °F /  -7.6 °C 29.84in /  1010.4hPa WNW 3.0mph /  4.8km/h 5.0mph /  8km/h 63% 0.00in /  0mm
00:59 29.6 °F /  -1.3 °C 18.6 °F /  -7.4 °C 29.84in /  1010.4hPa WNW 2.0mph /  3.2km/h 5.0mph /  8km/h 63% 0.00in /  0mm
01:04 29.6 °F /  -1.3 °C 18.9 °F /  -7.3 °C 29.84in /  1010.4hPa Calm   3.0mph /  4.8km/h 64% 0.00in /  0mm
01:09 29.5 °F /  -1.4 °C 18.8 °F /  -7.3 °C 29.84in /  1010.4hPa WSW 4.0mph /  6.4km/h 7.0mph /  11.3km/h 64% 0.00in /  0mm
01:14 29.7 °F /  -1.3 °C 19.4 °F /  -7 °C 29.84in /  1010.4hPa WSW 4.0mph /  6.4km/h 8.0mph /  12.9km/h 65% 0.00in /  0mm
01:19 29.8 °F /  -1.2 °C 19.8 °F /  -6.8 °C 29.84in /  1010.4hPa WNW 5.0mph /  8km/h 8.0mph /  12.9km/h 66% 0.00in /  0mm
01:24 29.7 °F /  -1.3 °C 20.1 °F /  -6.6 °C 29.84in /  1010.4hPa WNW 6.0mph /  9.7km/h 10.0mph /  16.1km/h 67% 0.00in /  0mm
01:29 29.4 °F /  -1.4 °C 20.8 °F /  -6.2 °C 29.84in /  1010.4hPa WSW 3.0mph /  4.8km/h 10.0mph /  16.1km/h 70% 0.00in /  0mm
01:34 29.0 °F /  -1.7 °C 20.8 °F /  -6.2 °C 29.84in /  1010.4hPa West 2.0mph /  3.2km/h 9.0mph /  14.5km/h 71% 0.00in /  0mm
01:39 28.8 °F /  -1.8 °C 20.9 °F /  -6.2 °C 29.84in /  1010.4hPa WSW 4.0mph /  6.4km/h 6.0mph /  9.7km/h 72% 0.00in /  0mm
01:44 28.7 °F /  -1.8 °C 21.1 °F /  -6.1 °C 29.84in /  1010.4hPa WSW 3.0mph /  4.8km/h 6.0mph /  9.7km/h 73% 0.00in /  0mm
01:49 28.6 °F /  -1.9 °C 21.0 °F /  -6.1 °C 29.84in /  1010.4hPa WSW 3.0mph /  4.8km/h 6.0mph /  9.7km/h 73% 0.00in /  0mm
01:54 28.4 °F /  -2 °C 21.2 °F /  -6 °C 29.84in /  1010.4hPa West 3.0mph /  4.8km/h 6.0mph /  9.7km/h 74% 0.00in /  0mm
01:59 28.3 °F /  -2.1 °C 21.4 °F /  -5.9 °C 29.84in /  1010.4hPa WSW 3.0mph /  4.8km/h 6.0mph /  9.7km/h 75% 0.00in /  0mm
02:04 28.1 °F /  -2.2 °C 21.8 °F /  -5.7 °C 29.84in /  1010.4hPa WSW 2.0mph /  3.2km/h 6.0mph /  9.7km/h 77% 0.00in /  0mm
02:09 27.9 °F /  -2.3 °C 21.9 °F /  -5.6 °C 29.84in /  1010.4hPa WSW 3.0mph /  4.8km/h 5.0mph /  8km/h 78% 0.00in /  0mm
02:14 27.8 °F /  -2.3 °C 22.1 °F /  -5.5 °C 29.83in /  1010hPa West 2.0mph /  3.2km/h 5.0mph /  8km/h 79% 0.00in /  0mm
02:19 27.7 °F /  -2.4 °C 22.0 °F /  -5.6 °C 29.83in /  1010hPa West 1.0mph /  1.6km/h 4.0mph /  6.4km/h 79% 0.00in /  0mm
02:24 27.5 °F /  -2.5 °C 21.8 °F /  -5.7 °C 29.83in /  1010hPa West 2.0mph /  3.2km/h 4.0mph /  6.4km/h 79% 0.00in /  0mm
02:29 27.5 °F /  -2.5 °C 22.1 °F /  -5.5 °C 29.83in /  1010hPa Calm   3.0mph /  4.8km/h 80% 0.00in /  0mm
02:34 27.5 °F /  -2.5 °C 22.1 °F /  -5.5 °C 29.83in /  1010hPa West 2.0mph /  3.2km/h 4.0mph /  6.4km/h 80% 0.00in /  0mm
02:39 27.4 °F /  -2.6 °C 22.3 °F /  -5.4 °C 29.83in /  1010hPa West 1.0mph /  1.6km/h 5.0mph /  8km/h 81% 0.00in /  0mm
02:44 27.4 °F /  -2.6 °C 22.3 °F /  -5.4 °C 29.83in /  1010hPa Calm   5.0mph /  8km/h 81% 0.00in /  0mm
02:49 27.4 °F /  -2.6 °C 22.3 °F /  -5.4 °C 29.83in /  1010hPa Calm   3.0mph /  4.8km/h 81% 0.00in /  0mm
02:54 27.3 °F /  -2.6 °C 22.5 °F /  -5.3 °C 29.83in /  1010hPa Calm   1.0mph /  1.6km/h 82% 0.00in /  0mm
02:59 27.2 °F /  -2.7 °C 22.7 °F /  -5.2 °C 29.82in /  1009.7hPa Calm   3.0mph /  4.8km/h 83% 0.00in /  0mm
03:04 27.1 °F /  -2.7 °C 22.6 °F /  -5.2 °C 29.82in /  1009.7hPa West 1.0mph /  1.6km/h 3.0mph /  4.8km/h 83% 0.00in /  0mm
03:09 27.1 °F /  -2.7 °C 22.6 °F /  -5.2 °C 29.82in /  1009.7hPa Calm   3.0mph /  4.8km/h 83% 0.00in /  0mm
03:14 27.0 °F /  -2.8 °C 22.5 °F /  -5.3 °C 29.82in /  1009.7hPa Calm   3.0mph /  4.8km/h 83% 0.00in /  0mm
03:19 27.0 °F /  -2.8 °C 22.8 °F /  -5.1 °C 29.82in /  1009.7hPa Calm   3.0mph /  4.8km/h 84% 0.00in /  0mm
03:24 27.0 °F /  -2.8 °C 22.8 °F /  -5.1 °C 29.81in /  1009.4hPa West 2.0mph /  3.2km/h 3.0mph /  4.8km/h 84% 0.00in /  0mm
03:29 26.9 °F /  -2.8 °C 22.7 °F /  -5.2 °C 29.81in /  1009.4hPa West 1.0mph /  1.6km/h 4.0mph /  6.4km/h 84% 0.00in /  0mm
03:34 26.9 °F /  -2.8 °C 22.7 °F /  -5.2 °C 29.81in /  1009.4hPa Calm   4.0mph /  6.4km/h 84% 0.00in /  0mm
03:39 26.8 °F /  -2.9 °C 22.6 °F /  -5.2 °C 29.81in /  1009.4hPa Calm   4.0mph /  6.4km/h 84% 0.00in /  0mm
03:44 26.8 °F /  -2.9 °C 22.9 °F /  -5.1 °C 29.81in /  1009.4hPa West 2.0mph /  3.2km/h 4.0mph /  6.4km/h 85% 0.00in /  0mm
03:49 26.9 °F /  -2.8 °C 23.0 °F /  -5 °C 29.81in /  1009.4hPa Calm   4.0mph /  6.4km/h 85% 0.00in /  0mm
03:54 26.9 °F /  -2.8 °C 23.0 °F /  -5 °C 29.82in /  1009.7hPa Calm   4.0mph /  6.4km/h 85% 0.00in /  0mm
03:59 26.9 °F /  -2.8 °C 23.0 °F /  -5 °C 29.81in /  1009.4hPa West 3.0mph /  4.8km/h 4.0mph /  6.4km/h 85% 0.00in /  0mm
04:04 26.9 °F /  -2.8 °C 23.0 °F /  -5 °C 29.81in /  1009.4hPa West 2.0mph /  3.2km/h 4.0mph /  6.4km/h 85% 0.00in /  0mm
04:09 26.9 °F /  -2.8 °C 23.0 °F /  -5 °C 29.81in /  1009.4hPa Calm   4.0mph /  6.4km/h 85% 0.00in /  0mm
04:14 27.0 °F /  -2.8 °C 23.1 °F /  -4.9 °C 29.81in /  1009.4hPa West 3.0mph /  4.8km/h 4.0mph /  6.4km/h 85% 0.00in /  0mm
04:19 26.9 °F /  -2.8 °C 23.3 °F /  -4.8 °C 29.81in /  1009.4hPa West 1.0mph /  1.6km/h 4.0mph /  6.4km/h 86% 0.00in /  0mm
04:24 26.6 °F /  -3 °C 22.7 °F /  -5.2 °C 29.81in /  1009.4hPa WNW 4.0mph /  6.4km/h 7.0mph /  11.3km/h 85% 0.00in /  0mm
04:29 25.4 °F /  -3.7 °C 21.0 °F /  -6.1 °C 29.82in /  1009.7hPa NW 5.0mph /  8km/h 10.0mph /  16.1km/h 83% 0.00in /  0mm
04:34 23.9 °F /  -4.5 °C 19.2 °F /  -7.1 °C 29.82in /  1009.7hPa WNW 2.0mph /  3.2km/h 10.0mph /  16.1km/h 82% 0.00in /  0mm
04:39 22.7 °F /  -5.2 °C 18.0 °F /  -7.8 °C 29.82in /  1009.7hPa WNW 4.0mph /  6.4km/h 7.0mph /  11.3km/h 82% 0.00in /  0mm
04:44 21.3 °F /  -5.9 °C 16.7 °F /  -8.5 °C 29.81in /  1009.4hPa WNW 3.0mph /  4.8km/h 9.0mph /  14.5km/h 82% 0.00in /  0mm
04:49 20.4 °F /  -6.4 °C 15.8 °F /  -9 °C 29.81in /  1009.4hPa WNW 3.0mph /  4.8km/h 9.0mph /  14.5km/h 82% 0.00in /  0mm
04:54 19.7 °F /  -6.8 °C 15.1 °F /  -9.4 °C 29.81in /  1009.4hPa NW 1.0mph /  1.6km/h 7.0mph /  11.3km/h 82% 0.00in /  0mm
04:59 19.4 °F /  -7 °C 14.8 °F /  -9.6 °C 29.82in /  1009.7hPa WNW 2.0mph /  3.2km/h 7.0mph /  11.3km/h 82% 0.00in /  0mm
05:04 18.8 °F /  -7.3 °C 14.2 °F /  -9.9 °C 29.82in /  1009.7hPa NW 4.0mph /  6.4km/h 8.0mph /  12.9km/h 82% 0.00in /  0mm
05:09 18.0 °F /  -7.8 °C 13.4 °F /  -10.3 °C 29.82in /  1009.7hPa NW 4.0mph /  6.4km/h 8.0mph /  12.9km/h 82% 0.00in /  0mm
05:14 17.6 °F /  -8 °C 13.0 °F /  -10.6 °C 29.82in /  1009.7hPa WNW 1.0mph /  1.6km/h 8.0mph /  12.9km/h 82% 0.00in /  0mm
05:19 17.0 °F /  -8.3 °C 12.5 °F /  -10.8 °C 29.82in /  1009.7hPa WNW 4.0mph /  6.4km/h 8.0mph /  12.9km/h 82% 0.00in /  0mm
05:25 16.6 °F /  -8.6 °C 12.3 °F /  -10.9 °C 29.82in /  1009.7hPa West 2.0mph /  3.2km/h 8.0mph /  12.9km/h 83% 0.00in /  0mm
05:34 16.1 °F /  -8.8 °C 11.9 °F /  -11.2 °C 29.82in /  1009.7hPa NW 1.0mph /  1.6km/h 7.0mph /  11.3km/h 83% 0.00in /  0mm
05:39 15.9 °F /  -8.9 °C 11.7 °F /  -11.3 °C 29.82in /  1009.7hPa Calm   6.0mph /  9.7km/h 83% 0.00in /  0mm
05:44 15.7 °F /  -9.1 °C 11.5 °F /  -11.4 °C 29.82in /  1009.7hPa WNW 1.0mph /  1.6km/h 6.0mph /  9.7km/h 83% 0.00in /  0mm
05:49 15.5 °F /  -9.2 °C 11.3 °F /  -11.5 °C 29.82in /  1009.7hPa Calm   2.0mph /  3.2km/h 83% 0.00in /  0mm
05:54 15.5 °F /  -9.2 °C 11.3 °F /  -11.5 °C 29.82in /  1009.7hPa Calm     83% 0.00in /  0mm
05:59 15.5 °F /  -9.2 °C 11.3 °F /  -11.5 °C 29.81in /  1009.4hPa WNW 1.0mph /  1.6km/h 4.0mph /  6.4km/h 83% 0.00in /  0mm
06:04 15.4 °F /  -9.2 °C 11.2 °F /  -11.6 °C 29.81in /  1009.4hPa WNW 1.0mph /  1.6km/h 4.0mph /  6.4km/h 83% 0.00in /  0mm
06:09 15.2 °F /  -9.3 °C 11.0 °F /  -11.7 °C 29.81in /  1009.4hPa Calm   3.0mph /  4.8km/h 83% 0.00in /  0mm
06:14 15.0 °F /  -9.4 °C 10.5 °F /  -11.9 °C 29.81in /  1009.4hPa Calm   3.0mph /  4.8km/h 82% 0.00in /  0mm
06:19 14.9 °F /  -9.5 °C 10.4 °F /  -12 °C 29.81in /  1009.4hPa Calm     82% 0.00in /  0mm
06:24 14.8 °F /  -9.6 °C 10.3 °F /  -12.1 °C 29.81in /  1009.4hPa Calm     82% 0.00in /  0mm
06:34 14.3 °F /  -9.8 °C 9.8 °F /  -12.3 °C 29.81in /  1009.4hPa Calm   3.0mph /  4.8km/h 82% 0.00in /  0mm
06:39 14.1 °F /  -9.9 °C 9.6 °F /  -12.4 °C 29.81in /  1009.4hPa Calm   2.0mph /  3.2km/h 82% 0.00in /  0mm
06:44 13.7 °F /  -10.2 °C 9.0 °F /  -12.8 °C 29.81in /  1009.4hPa NNE 2.0mph /  3.2km/h 5.0mph /  8km/h 81% 0.00in /  0mm
06:49 13.5 °F /  -10.3 °C 8.8 °F /  -12.9 °C 29.81in /  1009.4hPa Calm   5.0mph /  8km/h 81% 0.00in /  0mm
06:54 13.4 °F /  -10.3 °C 8.7 °F /  -12.9 °C 29.81in /  1009.4hPa NNE 1.0mph /  1.6km/h 5.0mph /  8km/h 81% 0.00in /  0mm
06:59 13.2 °F /  -10.4 °C 8.5 °F /  -13.1 °C 29.81in /  1009.4hPa North 2.0mph /  3.2km/h 6.0mph /  9.7km/h 81% 0.00in /  0mm
07:04 12.9 °F /  -10.6 °C 8.2 °F /  -13.2 °C 29.81in /  1009.4hPa NNE 2.0mph /  3.2km/h 6.0mph /  9.7km/h 81% 0.00in /  0mm
07:09 12.8 °F /  -10.7 °C 8.1 °F /  -13.3 °C 29.81in /  1009.4hPa NNW 2.0mph /  3.2km/h 6.0mph /  9.7km/h 81% 0.00in /  0mm
07:14 12.6 °F /  -10.8 °C 7.9 °F /  -13.4 °C 29.81in /  1009.4hPa North 2.0mph /  3.2km/h 6.0mph /  9.7km/h 81% 0.00in /  0mm
07:19 12.5 °F /  -10.8 °C 7.8 °F /  -13.4 °C 29.81in /  1009.4hPa NNE 1.0mph /  1.6km/h 6.0mph /  9.7km/h 81% 0.00in /  0mm
07:24 12.4 °F /  -10.9 °C 7.7 °F /  -13.5 °C 29.82in /  1009.7hPa North 2.0mph /  3.2km/h 7.0mph /  11.3km/h 81% 0.00in /  0mm
07:29 12.3 °F /  -10.9 °C 7.6 °F /  -13.6 °C 29.82in /  1009.7hPa North 1.0mph /  1.6km/h 7.0mph /  11.3km/h 81% 0.00in /  0mm
07:34 12.1 °F /  -11.1 °C 7.1 °F /  -13.8 °C 29.82in /  1009.7hPa NNE 1.0mph /  1.6km/h 4.0mph /  6.4km/h 80% 0.00in /  0mm
07:39 12.0 °F /  -11.1 °C 7.0 °F /  -13.9 °C 29.82in /  1009.7hPa North 1.0mph /  1.6km/h 4.0mph /  6.4km/h 80% 0.00in /  0mm
07:44 11.8 °F /  -11.2 °C 6.8 °F /  -14 °C 29.83in /  1010hPa North 1.0mph /  1.6km/h 4.0mph /  6.4km/h 80% 0.00in /  0mm
07:54 11.7 °F /  -11.3 °C 6.7 °F /  -14.1 °C 29.83in /  1010hPa NNE 2.0mph /  3.2km/h 5.0mph /  8km/h 80% 0.00in /  0mm
07:59 11.6 °F /  -11.3 °C 6.6 °F /  -14.1 °C 29.83in /  1010hPa Calm   5.0mph /  8km/h 80% 0.00in /  0mm
08:04 11.5 °F /  -11.4 °C 6.3 °F /  -14.3 °C 29.83in /  1010hPa Calm   4.0mph /  6.4km/h 79% 0.00in /  0mm
08:24 11.2 °F /  -11.6 °C 6.0 °F /  -14.4 °C 29.84in /  1010.4hPa NNW 1.0mph /  1.6km/h 6.0mph /  9.7km/h 79% 0.00in /  0mm
08:29 11.3 °F /  -11.5 °C 6.1 °F /  -14.4 °C 29.84in /  1010.4hPa NNW 1.0mph /  1.6km/h 5.0mph /  8km/h 79% 0.00in /  0mm
08:34 11.2 °F /  -11.6 °C 6.0 °F /  -14.4 °C 29.84in /  1010.4hPa NNE 1.0mph /  1.6km/h 7.0mph /  11.3km/h 79% 0.00in /  0mm
08:39 11.2 °F /  -11.6 °C 6.0 °F /  -14.4 °C 29.83in /  1010hPa NNE 1.0mph /  1.6km/h 7.0mph /  11.3km/h 79% 0.00in /  0mm
08:44 11.2 °F /  -11.6 °C 6.0 °F /  -14.4 °C 29.84in /  1010.4hPa Calm   5.0mph /  8km/h 79% 0.00in /  0mm
08:49 11.4 °F /  -11.4 °C 6.2 °F /  -14.3 °C 29.83in /  1010hPa NNW 2.0mph /  3.2km/h 4.0mph /  6.4km/h 79% 0.00in /  0mm
08:54 11.4 °F /  -11.4 °C 6.2 °F /  -14.3 °C 29.83in /  1010hPa NNW 2.0mph /  3.2km/h 5.0mph /  8km/h 79% 0.00in /  0mm
08:59 11.5 °F /  -11.4 °C 6.0 °F /  -14.4 °C 29.83in /  1010hPa NNE 2.0mph /  3.2km/h 6.0mph /  9.7km/h 78% 0.00in /  0mm
09:04 11.6 °F /  -11.3 °C 6.1 °F /  -14.4 °C 29.84in /  1010.4hPa NE 1.0mph /  1.6km/h 6.0mph /  9.7km/h 78% 0.00in /  0mm
09:09 11.6 °F /  -11.3 °C 6.1 °F /  -14.4 °C 29.84in /  1010.4hPa NNW 2.0mph /  3.2km/h 5.0mph /  8km/h 78% 0.00in /  0mm
09:14 11.7 °F /  -11.3 °C 6.2 °F /  -14.3 °C 29.84in /  1010.4hPa North 1.0mph /  1.6km/h 6.0mph /  9.7km/h 78% 0.00in /  0mm
09:19 11.9 °F /  -11.2 °C 6.4 °F /  -14.2 °C 29.84in /  1010.4hPa Calm   6.0mph /  9.7km/h 78% 0.00in /  0mm
09:29 11.7 °F /  -11.3 °C 5.9 °F /  -14.5 °C 29.85in /  1010.7hPa WNW 1.0mph /  1.6km/h 4.0mph /  6.4km/h 77% 0.00in /  0mm
09:34 11.7 °F /  -11.3 °C 5.9 °F /  -14.5 °C 29.85in /  1010.7hPa WNW 1.0mph /  1.6km/h 4.0mph /  6.4km/h 77% 0.00in /  0mm
09:39 11.8 °F /  -11.2 °C 6.0 °F /  -14.4 °C 29.84in /  1010.4hPa WNW 2.0mph /  3.2km/h 6.0mph /  9.7km/h 77% 0.00in /  0mm
09:44 12.0 °F /  -11.1 °C 6.2 °F /  -14.3 °C 29.84in /  1010.4hPa WNW 2.0mph /  3.2km/h 6.0mph /  9.7km/h 77% 0.00in /  0mm
09:49 11.9 °F /  -11.2 °C 5.8 °F /  -14.6 °C 29.84in /  1010.4hPa WNW 1.0mph /  1.6km/h 5.0mph /  8km/h 76% 0.00in /  0mm
09:59 12.9 °F /  -10.6 °C 6.8 °F /  -14 °C 29.84in /  1010.4hPa WNW 2.0mph /  3.2km/h 5.0mph /  8km/h 76% 0.00in /  0mm
10:04 13.2 °F /  -10.4 °C 6.8 °F /  -14 °C 29.84in /  1010.4hPa North 1.0mph /  1.6km/h 5.0mph /  8km/h 75% 0.00in /  0mm
10:09 13.3 °F /  -10.4 °C 6.9 °F /  -13.9 °C 29.84in /  1010.4hPa North 2.0mph /  3.2km/h 6.0mph /  9.7km/h 75% 0.00in /  0mm
10:14 13.2 °F /  -10.4 °C 6.5 °F /  -14.2 °C 29.84in /  1010.4hPa North 2.0mph /  3.2km/h 6.0mph /  9.7km/h 74% 0.00in /  0mm
10:19 13.0 °F /  -10.6 °C 6.3 °F /  -14.3 °C 29.85in /  1010.7hPa NNE 1.0mph /  1.6km/h 5.0mph /  8km/h 74% 0.00in /  0mm
10:24 12.9 °F /  -10.6 °C 6.2 °F /  -14.3 °C 29.85in /  1010.7hPa North 1.0mph /  1.6km/h 6.0mph /  9.7km/h 74% 0.00in /  0mm
10:29 13.0 °F /  -10.6 °C 6.3 °F /  -14.3 °C 29.84in /  1010.4hPa NNE 1.0mph /  1.6km/h 6.0mph /  9.7km/h 74% 0.00in /  0mm
10:34 13.0 °F /  -10.6 °C 6.0 °F /  -14.4 °C 29.84in /  1010.4hPa NNE 1.0mph /  1.6km/h 7.0mph /  11.3km/h 73% 0.00in /  0mm
10:39 13.1 °F /  -10.5 °C 6.4 °F /  -14.2 °C 29.84in /  1010.4hPa NNE 2.0mph /  3.2km/h 7.0mph /  11.3km/h 74% 0.00in /  0mm
10:44 13.0 °F /  -10.6 °C 6.0 °F /  -14.4 °C 29.84in /  1010.4hPa NNE 2.0mph /  3.2km/h 6.0mph /  9.7km/h 73% 0.00in /  0mm
10:54 13.3 °F /  -10.4 °C 6.6 °F /  -14.1 °C 29.84in /  1010.4hPa Calm   6.0mph /  9.7km/h 74% 0.00in /  0mm
10:59 13.5 °F /  -10.3 °C 6.8 °F /  -14 °C 29.83in /  1010hPa NW 3.0mph /  4.8km/h 7.0mph /  11.3km/h 74% 0.00in /  0mm
11:04 13.6 °F /  -10.2 °C 6.6 °F /  -14.1 °C 29.84in /  1010.4hPa North 2.0mph /  3.2km/h 7.0mph /  11.3km/h 73% 0.00in /  0mm
11:09 13.9 °F /  -10.1 °C 6.8 °F /  -14 °C 29.84in /  1010.4hPa NNW 1.0mph /  1.6km/h 6.0mph /  9.7km/h 73% 0.00in /  0mm
11:14 13.9 °F /  -10.1 °C 6.5 °F /  -14.2 °C 29.83in /  1010hPa NNW 2.0mph /  3.2km/h 5.0mph /  8km/h 72% 0.00in /  0mm
11:19 14.2 °F /  -9.9 °C 7.1 °F /  -13.8 °C 29.83in /  1010hPa Calm   5.0mph /  8km/h 73% 0.00in /  0mm
11:24 14.3 °F /  -9.8 °C 6.6 °F /  -14.1 °C 29.83in /  1010hPa NW 3.0mph /  4.8km/h 6.0mph /  9.7km/h 71% 0.00in /  0mm
11:29 14.2 °F /  -9.9 °C 6.8 °F /  -14 °C 29.82in /  1009.7hPa NNW 1.0mph /  1.6km/h 6.0mph /  9.7km/h 72% 0.00in /  0mm
11:34 14.4 °F /  -9.8 °C 6.7 °F /  -14.1 °C 29.82in /  1009.7hPa NW 3.0mph /  4.8km/h 8.0mph /  12.9km/h 71% 0.00in /  0mm
11:39 14.7 °F /  -9.6 °C 7.3 °F /  -13.7 °C 29.82in /  1009.7hPa North 1.0mph /  1.6km/h 8.0mph /  12.9km/h 72% 0.00in /  0mm
11:44 15.4 °F /  -9.2 °C 7.7 °F /  -13.5 °C 29.82in /  1009.7hPa North 2.0mph /  3.2km/h 6.0mph /  9.7km/h 71% 0.00in /  0mm
11:49 16.1 °F /  -8.8 °C 8.4 °F /  -13.1 °C 29.81in /  1009.4hPa North 1.0mph /  1.6km/h 6.0mph /  9.7km/h 71% 0.00in /  0mm
11:54 16.7 °F /  -8.5 °C 8.3 °F /  -13.2 °C 29.81in /  1009.4hPa North 3.0mph /  4.8km/h 9.0mph /  14.5km/h 69% 0.00in /  0mm
11:59 16.7 °F /  -8.5 °C 8.3 °F /  -13.2 °C 29.81in /  1009.4hPa NNE 2.0mph /  3.2km/h 9.0mph /  14.5km/h 69% 0.00in /  0mm
12:04 17.0 °F /  -8.3 °C 8.3 °F /  -13.2 °C 29.81in /  1009.4hPa North 2.0mph /  3.2km/h 7.0mph /  11.3km/h 68% 0.00in /  0mm
12:09 16.8 °F /  -8.4 °C 7.7 °F /  -13.5 °C 29.81in /  1009.4hPa NNW 4.0mph /  6.4km/h 9.0mph /  14.5km/h 67% 0.00in /  0mm
12:14 16.6 °F /  -8.6 °C 7.9 °F /  -13.4 °C 29.80in /  1009hPa NNE 2.0mph /  3.2km/h 9.0mph /  14.5km/h 68% 0.00in /  0mm
12:19 16.8 °F /  -8.4 °C 7.7 °F /  -13.5 °C 29.80in /  1009hPa NNW 2.0mph /  3.2km/h 9.0mph /  14.5km/h 67% 0.00in /  0mm
12:24 16.7 °F /  -8.5 °C 7.3 °F /  -13.7 °C 29.80in /  1009hPa NNW 2.0mph /  3.2km/h 8.0mph /  12.9km/h 66% 0.00in /  0mm
12:34 16.8 °F /  -8.4 °C 7.4 °F /  -13.7 °C 29.80in /  1009hPa NNW 3.0mph /  4.8km/h 8.0mph /  12.9km/h 66% 0.00in /  0mm
12:39 16.5 °F /  -8.6 °C 7.5 °F /  -13.6 °C 29.80in /  1009hPa NNW 2.0mph /  3.2km/h 8.0mph /  12.9km/h 67% 0.00in /  0mm
12:49 16.4 °F /  -8.7 °C 7.4 °F /  -13.7 °C 29.79in /  1008.7hPa North 3.0mph /  4.8km/h 6.0mph /  9.7km/h 67% 0.00in /  0mm
12:59 16.4 °F /  -8.7 °C 7.0 °F /  -13.9 °C 29.79in /  1008.7hPa North 1.0mph /  1.6km/h 7.0mph /  11.3km/h 66% 0.00in /  0mm
13:04 15.9 °F /  -8.9 °C 6.5 °F /  -14.2 °C 29.79in /  1008.7hPa NNE 2.0mph /  3.2km/h 10.0mph /  16.1km/h 66% 0.00in /  0mm
13:09 15.5 °F /  -9.2 °C 6.5 °F /  -14.2 °C 29.80in /  1009hPa North 3.0mph /  4.8km/h 10.0mph /  16.1km/h 67% 0.00in /  0mm
13:14 15.2 °F /  -9.3 °C 6.2 °F /  -14.3 °C 29.79in /  1008.7hPa NNW 2.0mph /  3.2km/h 6.0mph /  9.7km/h 67% 0.00in /  0mm
13:19 15.0 °F /  -9.4 °C 6.3 °F /  -14.3 °C 29.79in /  1008.7hPa North 1.0mph /  1.6km/h 5.0mph /  8km/h 68% 0.00in /  0mm
13:24 15.0 °F /  -9.4 °C 6.3 °F /  -14.3 °C 29.79in /  1008.7hPa North 2.0mph /  3.2km/h 6.0mph /  9.7km/h 68% 0.00in /  0mm
13:30 14.8 °F /  -9.6 °C 6.2 °F /  -14.3 °C 29.79in /  1008.7hPa NNW 3.0mph /  4.8km/h 9.0mph /  14.5km/h 68% 0.00in /  0mm
13:39 13.9 °F /  -10.1 °C 5.3 °F /  -14.8 °C 29.79in /  1008.7hPa NNW 3.0mph /  4.8km/h 8.0mph /  12.9km/h 68% 0.00in /  0mm
13:44 13.6 °F /  -10.2 °C 5.6 °F /  -14.7 °C 29.78in /  1008.4hPa North 1.0mph /  1.6km/h 8.0mph /  12.9km/h 70% 0.00in /  0mm
13:49 13.4 °F /  -10.3 °C 5.1 °F /  -14.9 °C 29.78in /  1008.4hPa North 1.0mph /  1.6km/h 8.0mph /  12.9km/h 69% 0.00in /  0mm
13:54 13.4 °F /  -10.3 °C 5.4 °F /  -14.8 °C 29.78in /  1008.4hPa NNW 2.0mph /  3.2km/h 6.0mph /  9.7km/h 70% 0.00in /  0mm
13:59 13.2 °F /  -10.4 °C 4.9 °F /  -15.1 °C 29.77in /  1008hPa NNW 2.0mph /  3.2km/h 7.0mph /  11.3km/h 69% 0.00in /  0mm
14:04 12.8 °F /  -10.7 °C 4.9 °F /  -15.1 °C 29.77in /  1008hPa NW 2.0mph /  3.2km/h 7.0mph /  11.3km/h 70% 0.00in /  0mm
14:09 12.9 °F /  -10.6 °C 5.0 °F /  -15 °C 29.77in /  1008hPa NW 2.0mph /  3.2km/h 7.0mph /  11.3km/h 70% 0.00in /  0mm
14:14 12.8 °F /  -10.7 °C 4.9 °F /  -15.1 °C 29.77in /  1008hPa NNW 1.0mph /  1.6km/h 5.0mph /  8km/h 70% 0.00in /  0mm
14:19 12.9 °F /  -10.6 °C 5.0 °F /  -15 °C 29.77in /  1008hPa North 2.0mph /  3.2km/h 7.0mph /  11.3km/h 70% 0.00in /  0mm
14:25 12.8 °F /  -10.7 °C 4.9 °F /  -15.1 °C 29.77in /  1008hPa NNW 1.0mph /  1.6km/h 7.0mph /  11.3km/h 70% 0.00in /  0mm
14:34 13.2 °F /  -10.4 °C 5.2 °F /  -14.9 °C 29.77in /  1008hPa NNW 3.0mph /  4.8km/h 6.0mph /  9.7km/h 70% 0.00in /  0mm
14:39 13.2 °F /  -10.4 °C 5.2 °F /  -14.9 °C 29.77in /  1008hPa North 1.0mph /  1.6km/h 6.0mph /  9.7km/h 70% 0.00in /  0mm
14:44 13.6 °F /  -10.2 °C 5.6 °F /  -14.7 °C 29.77in /  1008hPa NNE 1.0mph /  1.6km/h 6.0mph /  9.7km/h 70% 0.00in /  0mm
14:49 14.0 °F /  -10 °C 5.7 °F /  -14.6 °C 29.77in /  1008hPa North 3.0mph /  4.8km/h 8.0mph /  12.9km/h 69% 0.00in /  0mm
14:59 14.0 °F /  -10 °C 5.4 °F /  -14.8 °C 29.77in /  1008hPa NNW 3.0mph /  4.8km/h 8.0mph /  12.9km/h 68% 0.00in /  0mm
15:04 13.6 °F /  -10.2 °C 5.0 °F /  -15 °C 29.77in /  1008hPa NNW 3.0mph /  4.8km/h 8.0mph /  12.9km/h 68% 0.00in /  0mm
15:09 13.1 °F /  -10.5 °C 4.5 °F /  -15.3 °C 29.78in /  1008.4hPa NNW 1.0mph /  1.6km/h 8.0mph /  12.9km/h 68% 0.00in /  0mm
15:14 12.8 °F /  -10.7 °C 4.2 °F /  -15.4 °C 29.78in /  1008.4hPa NNW 3.0mph /  4.8km/h 6.0mph /  9.7km/h 68% 0.00in /  0mm
15:19 12.8 °F /  -10.7 °C 4.6 °F /  -15.2 °C 29.77in /  1008hPa NNW 3.0mph /  4.8km/h 9.0mph /  14.5km/h 69% 0.00in /  0mm
15:24 13.2 °F /  -10.4 °C 4.9 °F /  -15.1 °C 29.77in /  1008hPa NNE 1.0mph /  1.6km/h 9.0mph /  14.5km/h 69% 0.00in /  0mm
15:29 13.6 °F /  -10.2 °C 5.0 °F /  -15 °C 29.77in /  1008hPa NNW 2.0mph /  3.2km/h 7.0mph /  11.3km/h 68% 0.00in /  0mm
15:34 13.9 °F /  -10.1 °C 5.0 °F /  -15 °C 29.77in /  1008hPa North 2.0mph /  3.2km/h 6.0mph /  9.7km/h 67% 0.00in /  0mm
15:39 14.0 °F /  -10 °C 5.1 °F /  -14.9 °C 29.77in /  1008hPa North 1.0mph /  1.6km/h 9.0mph /  14.5km/h 67% 0.00in /  0mm
15:44 13.9 °F /  -10.1 °C 4.6 °F /  -15.2 °C 29.77in /  1008hPa North 2.0mph /  3.2km/h 9.0mph /  14.5km/h 66% 0.00in /  0mm
15:49 13.5 °F /  -10.3 °C 4.6 °F /  -15.2 °C 29.77in /  1008hPa NNW 2.0mph /  3.2km/h 8.0mph /  12.9km/h 67% 0.00in /  0mm
15:54 13.3 °F /  -10.4 °C 4.4 °F /  -15.3 °C 29.77in /  1008hPa NNW 2.0mph /  3.2km/h 6.0mph /  9.7km/h 67% 0.00in /  0mm
15:59 13.1 °F /  -10.5 °C 4.2 °F /  -15.4 °C 29.77in /  1008hPa NNW 1.0mph /  1.6km/h 7.0mph /  11.3km/h 67% 0.00in /  0mm
16:04 13.1 °F /  -10.5 °C 4.2 °F /  -15.4 °C 29.77in /  1008hPa NNE 1.0mph /  1.6km/h 8.0mph /  12.9km/h 67% 0.00in /  0mm
16:09 12.7 °F /  -10.7 °C 3.8 °F /  -15.7 °C 29.77in /  1008hPa NNW 2.0mph /  3.2km/h 8.0mph /  12.9km/h 67% 0.00in /  0mm
16:14 12.5 °F /  -10.8 °C 3.6 °F /  -15.8 °C 29.77in /  1008hPa NNE 1.0mph /  1.6km/h 7.0mph /  11.3km/h 67% 0.00in /  0mm
16:19 12.3 °F /  -10.9 °C 3.8 °F /  -15.7 °C 29.77in /  1008hPa NNW 1.0mph /  1.6km/h 7.0mph /  11.3km/h 68% 0.00in /  0mm
16:24 12.0 °F /  -11.1 °C 3.1 °F /  -16.1 °C 29.77in /  1008hPa NNE 1.0mph /  1.6km/h 7.0mph /  11.3km/h 67% 0.00in /  0mm
16:34 11.3 °F /  -11.5 °C 2.8 °F /  -16.2 °C 29.77in /  1008hPa Calm   5.0mph /  8km/h 68% 0.00in /  0mm
16:44 10.5 °F /  -11.9 °C 2.3 °F /  -16.5 °C 29.77in /  1008hPa Calm   4.0mph /  6.4km/h 69% 0.00in /  0mm
16:49 10.0 °F /  -12.2 °C 1.9 °F /  -16.7 °C 29.77in /  1008hPa NNW 1.0mph /  1.6km/h 5.0mph /  8km/h 69% 0.00in /  0mm
16:59 9.0 °F /  -12.8 °C 1.2 °F /  -17.1 °C 29.77in /  1008hPa Calm   3.0mph /  4.8km/h 70% 0.00in /  0mm
17:15 7.7 °F /  -13.5 °C 0.6 °F /  -17.4 °C 29.78in /  1008.4hPa Calm   2.0mph /  3.2km/h 72% 0.00in /  0mm
17:24 6.9 °F /  -13.9 °C 0.1 °F /  -17.7 °C 29.78in /  1008.4hPa Calm   2.0mph /  3.2km/h 73% 0.00in /  0mm
17:29 6.6 °F /  -14.1 °C -0.2 °F /  -17.9 °C 29.78in /  1008.4hPa Calm   3.0mph /  4.8km/h 73% 0.00in /  0mm
17:34 6.3 °F /  -14.3 °C -0.2 °F /  -17.9 °C 29.78in /  1008.4hPa Calm   3.0mph /  4.8km/h 74% 0.00in /  0mm
17:39 6.1 °F /  -14.4 °C -0.1 °F /  -17.8 °C 29.78in /  1008.4hPa Calm   3.0mph /  4.8km/h 75% 0.00in /  0mm
17:44 6.0 °F /  -14.4 °C -0.2 °F /  -17.9 °C 29.79in /  1008.7hPa North 1.0mph /  1.6km/h 4.0mph /  6.4km/h 75% 0.00in /  0mm
17:49 5.8 °F /  -14.6 °C -0.4 °F /  -18 °C 29.79in /  1008.7hPa Calm   4.0mph /  6.4km/h 75% 0.00in /  0mm
17:54 5.6 °F /  -14.7 °C -0.6 °F /  -18.1 °C 29.79in /  1008.7hPa North 1.0mph /  1.6km/h 3.0mph /  4.8km/h 75% 0.00in /  0mm
17:59 5.5 °F /  -14.7 °C -0.4 °F /  -18 °C 29.79in /  1008.7hPa Calm   3.0mph /  4.8km/h 76% 0.00in /  0mm
18:04 5.4 °F /  -14.8 °C -0.5 °F /  -18.1 °C 29.79in /  1008.7hPa Calm   6.0mph /  9.7km/h 76% 0.00in /  0mm
18:09 5.3 °F /  -14.8 °C -0.6 °F /  -18.1 °C 29.79in /  1008.7hPa North 1.0mph /  1.6km/h 6.0mph /  9.7km/h 76% 0.00in /  0mm
18:19 5.3 °F /  -14.8 °C -0.6 °F /  -18.1 °C 29.79in /  1008.7hPa Calm   3.0mph /  4.8km/h 76% 0.00in /  0mm
18:24 5.2 °F /  -14.9 °C -0.7 °F /  -18.2 °C 29.79in /  1008.7hPa Calm   4.0mph /  6.4km/h 76% 0.00in /  0mm
18:34 5.1 °F /  -14.9 °C -0.8 °F /  -18.2 °C 29.80in /  1009hPa Calm   3.0mph /  4.8km/h 76% 0.00in /  0mm
18:39 5.0 °F /  -15 °C -0.6 °F /  -18.1 °C 29.80in /  1009hPa Calm   3.0mph /  4.8km/h 77% 0.00in /  0mm
18:44 4.9 °F /  -15.1 °C -0.7 °F /  -18.2 °C 29.79in /  1008.7hPa Calm   2.0mph /  3.2km/h 77% 0.00in /  0mm
18:49 4.8 °F /  -15.1 °C -0.8 °F /  -18.2 °C 29.79in /  1008.7hPa NNE 1.0mph /  1.6km/h 4.0mph /  6.4km/h 77% 0.00in /  0mm
18:55 4.8 °F /  -15.1 °C -0.8 °F /  -18.2 °C 29.79in /  1008.7hPa Calm   4.0mph /  6.4km/h 77% 0.00in /  0mm
19:00 4.7 °F /  -15.2 °C -0.9 °F /  -18.3 °C 29.79in /  1008.7hPa Calm     77% 0.00in /  0mm
19:05 4.5 °F /  -15.3 °C -1.1 °F /  -18.4 °C 29.79in /  1008.7hPa Calm   5.0mph /  8km/h 77% 0.00in /  0mm
19:10 4.4 °F /  -15.3 °C -1.2 °F /  -18.4 °C 29.79in /  1008.7hPa Calm   5.0mph /  8km/h 77% 0.00in /  0mm
19:15 4.4 °F /  -15.3 °C -0.9 °F /  -18.3 °C 29.79in /  1008.7hPa Calm   3.0mph /  4.8km/h 78% 0.00in /  0mm
19:20 4.4 °F /  -15.3 °C -0.9 °F /  -18.3 °C 29.79in /  1008.7hPa Calm   3.0mph /  4.8km/h 78% 0.00in /  0mm
19:25 4.2 °F /  -15.4 °C -1.1 °F /  -18.4 °C 29.79in /  1008.7hPa Calm   2.0mph /  3.2km/h 78% 0.00in /  0mm
19:30 4.2 °F /  -15.4 °C -1.1 °F /  -18.4 °C 29.79in /  1008.7hPa Calm   3.0mph /  4.8km/h 78% 0.00in /  0mm
19:35 4.0 °F /  -15.6 °C -1.3 °F /  -18.5 °C 29.79in /  1008.7hPa Calm   4.0mph /  6.4km/h 78% 0.00in /  0mm
19:40 3.9 °F /  -15.6 °C -1.4 °F /  -18.6 °C 29.80in /  1009hPa Calm   5.0mph /  8km/h 78% 0.00in /  0mm
19:45 3.9 °F /  -15.6 °C -1.4 °F /  -18.6 °C 29.80in /  1009hPa Calm   5.0mph /  8km/h 78% 0.00in /  0mm
19:50 3.9 °F /  -15.6 °C -1.4 °F /  -18.6 °C 29.80in /  1009hPa Calm   3.0mph /  4.8km/h 78% 0.00in /  0mm
19:55 3.8 °F /  -15.7 °C -1.5 °F /  -18.6 °C 29.80in /  1009hPa Calm   3.0mph /  4.8km/h 78% 0.00in /  0mm
20:00 3.7 °F /  -15.7 °C -1.6 °F /  -18.7 °C 29.80in /  1009hPa Calm   3.0mph /  4.8km/h 78% 0.00in /  0mm
20:05 3.7 °F /  -15.7 °C -1.4 °F /  -18.6 °C 29.80in /  1009hPa Calm   2.0mph /  3.2km/h 79% 0.00in /  0mm
20:10 3.7 °F /  -15.7 °C -1.4 °F /  -18.6 °C 29.80in /  1009hPa Calm   2.0mph /  3.2km/h 79% 0.00in /  0mm
20:15 3.7 °F /  -15.7 °C -1.4 °F /  -18.6 °C 29.80in /  1009hPa Calm   3.0mph /  4.8km/h 79% 0.00in /  0mm
20:20 3.9 °F /  -15.6 °C -1.2 °F /  -18.4 °C 29.80in /  1009hPa North 1.0mph /  1.6km/h 5.0mph /  8km/h 79% 0.00in /  0mm
20:25 4.0 °F /  -15.6 °C -1.1 °F /  -18.4 °C 29.81in /  1009.4hPa NNE 2.0mph /  3.2km/h 6.0mph /  9.7km/h 79% 0.00in /  0mm
20:30 4.1 °F /  -15.5 °C -1.0 °F /  -18.3 °C 29.80in /  1009hPa NNE 1.0mph /  1.6km/h 10.0mph /  16.1km/h 79% 0.00in /  0mm
20:35 4.3 °F /  -15.4 °C -0.8 °F /  -18.2 °C 29.80in /  1009hPa NNE 2.0mph /  3.2km/h 10.0mph /  16.1km/h 79% 0.00in /  0mm
20:40 4.5 °F /  -15.3 °C -0.6 °F /  -18.1 °C 29.81in /  1009.4hPa North 1.0mph /  1.6km/h 9.0mph /  14.5km/h 79% 0.00in /  0mm
20:45 4.6 °F /  -15.2 °C -0.5 °F /  -18.1 °C 29.81in /  1009.4hPa Calm   5.0mph /  8km/h 79% 0.00in /  0mm
20:50 4.9 °F /  -15.1 °C -0.2 °F /  -17.9 °C 29.81in /  1009.4hPa Calm   5.0mph /  8km/h 79% 0.00in /  0mm
20:55 5.0 °F /  -15 °C -0.1 °F /  -17.8 °C 29.81in /  1009.4hPa NNE 1.0mph /  1.6km/h 4.0mph /  6.4km/h 79% 0.00in /  0mm
21:00 5.0 °F /  -15 °C -0.1 °F /  -17.8 °C 29.81in /  1009.4hPa Calm   3.0mph /  4.8km/h 79% 0.00in /  0mm
21:05 5.1 °F /  -14.9 °C -0.3 °F /  -17.9 °C 29.81in /  1009.4hPa Calm   2.0mph /  3.2km/h 78% 0.00in /  0mm
21:10 5.0 °F /  -15 °C -0.4 °F /  -18 °C 29.81in /  1009.4hPa Calm   2.0mph /  3.2km/h 78% 0.00in /  0mm
21:15 4.9 °F /  -15.1 °C -0.5 °F /  -18.1 °C 29.81in /  1009.4hPa Calm   3.0mph /  4.8km/h 78% 0.00in /  0mm
21:20 4.7 °F /  -15.2 °C -0.6 °F /  -18.1 °C 29.81in /  1009.4hPa Calm   3.0mph /  4.8km/h 78% 0.00in /  0mm
21:25 4.6 °F /  -15.2 °C -0.7 °F /  -18.2 °C 29.81in /  1009.4hPa Calm   2.0mph /  3.2km/h 78% 0.00in /  0mm
21:30 4.6 °F /  -15.2 °C -0.7 °F /  -18.2 °C 29.81in /  1009.4hPa Calm   3.0mph /  4.8km/h 78% 0.00in /  0mm
21:35 4.6 °F /  -15.2 °C -0.7 °F /  -18.2 °C 29.81in /  1009.4hPa Calm   3.0mph /  4.8km/h 78% 0.00in /  0mm
21:40 4.8 °F /  -15.1 °C -0.6 °F /  -18.1 °C 29.81in /  1009.4hPa Calm   1.0mph /  1.6km/h 78% 0.00in /  0mm
21:50 4.8 °F /  -15.1 °C -0.6 °F /  -18.1 °C 29.81in /  1009.4hPa Calm   3.0mph /  4.8km/h 78% 0.00in /  0mm
21:55 4.6 °F /  -15.2 °C -1.0 °F /  -18.3 °C 29.81in /  1009.4hPa Calm   3.0mph /  4.8km/h 77% 0.00in /  0mm
22:00 4.3 °F /  -15.4 °C -1.3 °F /  -18.5 °C 29.80in /  1009hPa Calm     77% 0.00in /  0mm
22:05 4.0 °F /  -15.6 °C -1.6 °F /  -18.7 °C 29.80in /  1009hPa Calm     77% 0.00in /  0mm
22:10 3.8 °F /  -15.7 °C -1.5 °F /  -18.6 °C 29.80in /  1009hPa Calm   1.0mph /  1.6km/h 78% 0.00in /  0mm
22:15 3.6 °F /  -15.8 °C -1.7 °F /  -18.7 °C 29.80in /  1009hPa Calm   3.0mph /  4.8km/h 78% 0.00in /  0mm
22:20 3.5 °F /  -15.8 °C -1.8 °F /  -18.8 °C 29.80in /  1009hPa Calm   3.0mph /  4.8km/h 78% 0.00in /  0mm
22:30 3.8 °F /  -15.7 °C -1.5 °F /  -18.6 °C 29.80in /  1009hPa Calm   3.0mph /  4.8km/h 78% 0.00in /  0mm
22:35 4.0 °F /  -15.6 °C -1.1 °F /  -18.4 °C 29.81in /  1009.4hPa Calm   3.0mph /  4.8km/h 79% 0.00in /  0mm
22:40 4.2 °F /  -15.4 °C -1.1 °F /  -18.4 °C 29.80in /  1009hPa Calm   2.0mph /  3.2km/h 78% 0.00in /  0mm
22:50 4.8 °F /  -15.1 °C -0.6 °F /  -18.1 °C 29.80in /  1009hPa Calm   5.0mph /  8km/h 78% 0.00in /  0mm
22:55 5.0 °F /  -15 °C -0.4 °F /  -18 °C 29.80in /  1009hPa Calm   3.0mph /  4.8km/h 78% 0.00in /  0mm
23:00 5.1 °F /  -14.9 °C -0.3 °F /  -17.9 °C 29.80in /  1009hPa Calm   2.0mph /  3.2km/h 78% 0.00in /  0mm
23:05 5.2 °F /  -14.9 °C -0.4 °F /  -18 °C 29.79in /  1008.7hPa NNE 1.0mph /  1.6km/h 4.0mph /  6.4km/h 77% 0.00in /  0mm
23:10 5.3 °F /  -14.8 °C -0.3 °F /  -17.9 °C 29.79in /  1008.7hPa Calm   4.0mph /  6.4km/h 77% 0.00in /  0mm
23:15 5.4 °F /  -14.8 °C -0.2 °F /  -17.9 °C 29.80in /  1009hPa Calm   3.0mph /  4.8km/h 77% 0.00in /  0mm
23:20 5.4 °F /  -14.8 °C -0.2 °F /  -17.9 °C 29.80in /  1009hPa Calm   3.0mph /  4.8km/h 77% 0.00in /  0mm
23:25 5.2 °F /  -14.9 °C -0.7 °F /  -18.2 °C 29.79in /  1008.7hPa NE 1.0mph /  1.6km/h 3.0mph /  4.8km/h 76% 0.00in /  0mm
23:30 5.2 °F /  -14.9 °C -0.7 °F /  -18.2 °C 29.79in /  1008.7hPa Calm   3.0mph /  4.8km/h 76% 0.00in /  0mm
23:35 5.0 °F /  -15 °C -0.9 °F /  -18.3 °C 29.79in /  1008.7hPa Calm   2.0mph /  3.2km/h 76% 0.00in /  0mm
23:40 4.8 °F /  -15.1 °C -1.4 °F /  -18.6 °C 29.79in /  1008.7hPa Calm   3.0mph /  4.8km/h 75% 0.00in /  0mm
23:50 4.5 °F /  -15.3 °C -1.7 °F /  -18.7 °C 29.79in /  1008.7hPa Calm   5.0mph /  8km/h 75% 0.00in /  0mm
23:55 4.4 °F /  -15.3 °C -1.8 °F /  -18.8 °C 29.79in /  1008.7hPa Calm   3.0mph /  4.8km/h 75% 0.00in /  0mm
Westford Weather
Compliments of Weather Underground

 
 
Current Radar Loop:

Copyright © WestfordWeather.net 2007-2014. All rights reserved.